createdAt,value
2018-01-26T00:01:59.819Z,97974.96
2018-01-26T00:04:28.887Z,97973.27
2018-01-26T00:06:57.192Z,97972.48
2018-01-26T00:09:26.315Z,97974.52
2018-01-26T00:11:54.623Z,97974.39
2018-01-26T00:14:22.927Z,97970.86
2018-01-26T00:16:51.775Z,97969.89
2018-01-26T00:19:20.077Z,97965.80
2018-01-26T00:21:48.384Z,97962.02
2018-01-26T00:24:16.730Z,97965.44
2018-01-26T00:26:44.799Z,97961.59
2018-01-26T00:29:13.144Z,97957.33
2018-01-26T00:31:41.494Z,97952.18
2018-01-26T00:34:09.798Z,97944.66
2018-01-26T00:36:38.096Z,97945.54
2018-01-26T00:39:06.699Z,97948.22
2018-01-26T00:41:35.003Z,97947.36
2018-01-26T00:44:03.327Z,97934.68
2018-01-26T00:46:31.923Z,97941.34
2018-01-26T00:49:00.228Z,97938.22
2018-01-26T00:51:29.230Z,97938.47
2018-01-26T00:53:57.603Z,97934.00
2018-01-26T00:56:25.910Z,97929.33
2018-01-26T00:58:54.406Z,97929.66
2018-01-26T01:01:22.720Z,97924.28
2018-01-26T01:03:51.028Z,97922.44
2018-01-26T01:06:19.379Z,97927.62
2018-01-26T01:08:47.680Z,97925.95
2018-01-26T01:11:16.051Z,97929.51
2018-01-26T01:13:44.380Z,97922.22
2018-01-26T01:16:12.808Z,97925.02
2018-01-26T01:18:41.173Z,97922.69
2018-01-26T01:21:09.935Z,97919.46
2018-01-26T01:23:38.244Z,97918.10
2018-01-26T01:26:07.028Z,97927.22
2018-01-26T01:28:35.343Z,97922.23
2018-01-26T01:31:03.700Z,97937.59
2018-01-26T01:33:32.100Z,97933.02
2018-01-26T01:36:00.456Z,97931.70
2018-01-26T01:38:28.778Z,97931.83
2018-01-26T01:40:57.119Z,97927.84
2018-01-26T01:43:25.424Z,97923.89
2018-01-26T01:45:53.742Z,97936.34
2018-01-26T01:48:22.104Z,97926.14
2018-01-26T01:50:50.399Z,97920.64
2018-01-26T01:53:19.128Z,97919.92
2018-01-26T01:55:47.471Z,97919.29
2018-01-26T01:58:15.832Z,97914.22
2018-01-26T02:00:44.152Z,97912.95
2018-01-26T02:03:12.607Z,97915.25
2018-01-26T02:05:40.914Z,97918.84
2018-01-26T02:08:09.230Z,97913.05
2018-01-26T02:10:37.857Z,97910.48
2018-01-26T02:13:07.064Z,97910.73
2018-01-26T02:15:35.400Z,97910.86
2018-01-26T02:18:04.000Z,97905.39
2018-01-26T02:20:32.302Z,97906.95
2018-01-26T02:23:00.663Z,97903.90
2018-01-26T02:25:41.335Z,97899.54
2018-01-26T02:28:09.936Z,97894.45
2018-01-26T02:30:38.249Z,97893.30
2018-01-26T02:33:07.536Z,97893.09
2018-01-26T02:35:36.253Z,97893.95
2018-01-26T02:38:04.580Z,97896.20
2018-01-26T02:40:33.658Z,97902.97
2018-01-26T02:43:01.995Z,97905.16
2018-01-26T02:45:30.299Z,97898.56
2018-01-26T02:47:59.126Z,97899.48
2018-01-26T02:50:28.200Z,97903.92
2018-01-26T02:52:56.515Z,97901.55
2018-01-26T02:55:24.849Z,97901.55
2018-01-26T02:57:53.168Z,97903.05
2018-01-26T03:00:21.796Z,97903.88
2018-01-26T03:02:50.119Z,97903.02
2018-01-26T03:05:18.430Z,97906.62
2018-01-26T03:07:46.776Z,97907.77
2018-01-26T03:10:15.843Z,97907.78
2018-01-26T03:12:44.197Z,97907.20
2018-01-26T03:15:13.520Z,97905.47
2018-01-26T03:17:41.863Z,97906.80
2018-01-26T03:20:10.170Z,97902.86
2018-01-26T03:22:38.676Z,97900.42
2018-01-26T03:25:07.747Z,97907.22
2018-01-26T03:27:36.106Z,97909.07
2018-01-26T03:30:04.824Z,97908.09
2018-01-26T03:32:33.131Z,97918.16
2018-01-26T03:35:01.436Z,97913.84
2018-01-26T03:37:29.762Z,97919.80
2018-01-26T03:39:58.140Z,97927.30
2018-01-26T03:42:26.553Z,97929.75
2018-01-26T03:44:54.915Z,97938.11
2018-01-26T03:47:23.920Z,97944.25
2018-01-26T03:49:53.385Z,97937.67
2018-01-26T03:52:28.587Z,97939.69
2018-01-26T03:54:57.000Z,97944.17
2018-01-26T03:57:25.299Z,97937.22
2018-01-26T03:59:53.599Z,97939.92
2018-01-26T04:02:21.963Z,97942.56
2018-01-26T04:04:51.672Z,97944.55
2018-01-26T04:07:20.739Z,97953.42
2018-01-26T04:09:49.104Z,97961.03
2018-01-26T04:12:18.238Z,97966.53
2018-01-26T04:14:46.676Z,97965.22
2018-01-26T04:17:15.367Z,97968.02
2018-01-26T04:19:43.670Z,97955.67
2018-01-26T04:22:11.980Z,97962.02
2018-01-26T04:24:40.311Z,97964.83
2018-01-26T04:27:08.620Z,97971.17
2018-01-26T04:29:37.719Z,97984.19
2018-01-26T04:32:06.787Z,97981.36
2018-01-26T04:34:35.151Z,97978.50
2018-01-26T04:37:03.445Z,97979.51
2018-01-26T04:39:31.946Z,97981.70
2018-01-26T04:42:00.295Z,97978.77
2018-01-26T04:44:28.604Z,97983.05
2018-01-26T04:46:57.696Z,97985.02
2018-01-26T04:49:26.804Z,97990.48
2018-01-26T04:51:56.124Z,97988.09
2018-01-26T04:54:24.445Z,97982.00
2018-01-26T04:56:52.752Z,97987.67
2018-01-26T04:59:21.079Z,97992.84
2018-01-26T05:01:49.371Z,97992.84
2018-01-26T05:04:18.008Z,98000.70
2018-01-26T05:06:46.327Z,98002.31
2018-01-26T05:09:14.664Z,98002.78
2018-01-26T05:11:42.988Z,97999.25
2018-01-26T05:14:11.300Z,98007.45
2018-01-26T05:16:39.798Z,98001.83
2018-01-26T05:19:08.100Z,97998.02
2018-01-26T05:21:36.398Z,98005.10
2018-01-26T05:24:04.842Z,98009.05
2018-01-26T05:26:33.138Z,98008.23
2018-01-26T05:29:01.443Z,98011.16
2018-01-26T05:31:30.558Z,98007.76
2018-01-26T05:33:59.636Z,98014.20
2018-01-26T05:36:27.938Z,98016.73
2018-01-26T05:38:57.327Z,98008.42
2018-01-26T05:41:25.647Z,98012.47
2018-01-26T05:43:53.951Z,98022.16
2018-01-26T05:46:22.332Z,98026.89
2018-01-26T05:48:50.771Z,98034.89
2018-01-26T05:51:19.090Z,98031.83
2018-01-26T05:53:47.423Z,98039.72
2018-01-26T05:56:15.727Z,98049.13
2018-01-26T05:58:44.033Z,98051.70
2018-01-26T06:01:12.529Z,98053.16
2018-01-26T06:03:41.219Z,98053.78
2018-01-26T06:06:09.528Z,98057.37
2018-01-26T06:08:37.872Z,98056.66
2018-01-26T06:11:06.175Z,98057.73
2018-01-26T06:13:34.486Z,98051.14
2018-01-26T06:16:02.835Z,98054.28
2018-01-26T06:18:31.143Z,98052.14
2018-01-26T06:21:00.219Z,98057.66
2018-01-26T06:23:30.767Z,98064.02
2018-01-26T06:25:59.088Z,98064.59
2018-01-26T06:28:27.395Z,98059.24
2018-01-26T06:30:55.748Z,98059.00
2018-01-26T06:33:24.819Z,98062.95
2018-01-26T06:35:53.123Z,98064.23
2018-01-26T06:38:22.214Z,98048.14
2018-01-26T06:40:50.511Z,98053.08
2018-01-26T06:43:19.611Z,98060.09
2018-01-26T06:45:48.167Z,98064.48
2018-01-26T06:48:16.574Z,98066.77
2018-01-26T06:50:44.904Z,98081.78
2018-01-26T06:53:13.255Z,98080.37
2018-01-26T06:55:42.064Z,98077.93
2018-01-26T06:58:10.371Z,98080.32
2018-01-26T07:00:38.901Z,98084.52
2018-01-26T07:03:07.219Z,98085.30
2018-01-26T07:05:35.523Z,98090.02
2018-01-26T07:08:03.936Z,98087.13
2018-01-26T07:10:32.776Z,98094.00
2018-01-26T07:13:01.312Z,98103.06
2018-01-26T07:15:30.344Z,98104.66
2018-01-26T07:17:59.060Z,98112.36
2018-01-26T07:20:27.393Z,98112.20
2018-01-26T07:22:55.751Z,98109.48
2018-01-26T07:25:24.064Z,98105.66
2018-01-26T07:27:52.369Z,98109.75
2018-01-26T07:30:20.992Z,98105.16
2018-01-26T07:32:49.353Z,98103.67
2018-01-26T07:35:17.661Z,98112.05
2018-01-26T07:37:46.015Z,98114.52
2018-01-26T07:40:14.320Z,98113.14
2018-01-26T07:42:42.636Z,98119.02
2018-01-26T07:45:11.004Z,98124.12
2018-01-26T07:47:40.071Z,98129.39
2018-01-26T07:50:08.379Z,98131.96
2018-01-26T07:52:36.988Z,98130.11
2018-01-26T07:55:05.291Z,98135.22
2018-01-26T07:57:34.015Z,98133.13
2018-01-26T08:00:02.335Z,98131.16
2018-01-26T08:02:31.744Z,98139.63
2018-01-26T08:05:00.073Z,98138.11
2018-01-26T08:07:28.415Z,98131.80
2018-01-26T08:09:56.728Z,98135.77
2018-01-26T08:12:25.886Z,98137.09
2018-01-26T08:14:54.208Z,98138.80
2018-01-26T08:17:22.524Z,98139.13
2018-01-26T08:19:51.123Z,98132.52
2018-01-26T08:22:19.423Z,98143.18
2018-01-26T08:24:47.731Z,98143.50
2018-01-26T08:27:16.712Z,98143.11
2018-01-26T08:29:45.019Z,98146.98
2018-01-26T08:32:13.330Z,98151.39
2018-01-26T08:34:41.667Z,98155.70
2018-01-26T08:37:10.739Z,98156.25
2018-01-26T08:39:39.043Z,98157.78
2018-01-26T08:42:07.415Z,98160.75
2018-01-26T08:44:35.730Z,98164.69
2018-01-26T08:47:04.028Z,98160.20
2018-01-26T08:49:32.375Z,98160.91
2018-01-26T08:52:00.675Z,98158.24
2018-01-26T08:54:28.984Z,98153.16
2018-01-26T08:56:57.648Z,98157.69
2018-01-26T08:59:26.012Z,98170.34
2018-01-26T09:01:54.315Z,98166.84
2018-01-26T09:04:22.758Z,98171.15
2018-01-26T09:06:51.067Z,98169.59
2018-01-26T09:09:19.383Z,98174.06
2018-01-26T09:11:48.487Z,98170.70
2018-01-26T09:14:16.853Z,98169.45
2018-01-26T09:16:45.152Z,98172.68
2018-01-26T09:19:13.576Z,98176.02
2018-01-26T09:21:41.875Z,98174.19
2018-01-26T09:24:10.180Z,98175.13
2018-01-26T09:26:38.524Z,98181.27
2018-01-26T09:29:06.826Z,98188.61
2018-01-26T09:31:35.129Z,98183.64
2018-01-26T09:34:04.272Z,98188.97
2018-01-26T09:36:32.595Z,98187.81
2018-01-26T09:39:00.896Z,98194.24
2018-01-26T09:41:29.395Z,98196.27
2018-01-26T09:43:58.195Z,98197.23
2018-01-26T09:46:26.509Z,98211.25
2018-01-26T09:48:55.127Z,98206.95
2018-01-26T09:51:24.431Z,98215.88
2018-01-26T09:53:52.731Z,98219.05
2018-01-26T09:56:21.215Z,98217.25
2018-01-26T09:58:49.624Z,98225.73
2018-01-26T10:01:17.999Z,98223.83
2018-01-26T10:03:46.344Z,98231.18
2018-01-26T10:06:14.951Z,98235.38
2018-01-26T10:08:43.281Z,98243.08
2018-01-26T10:11:11.623Z,98245.38
2018-01-26T10:13:40.695Z,98252.27
2018-01-26T10:16:09.025Z,98245.95
2018-01-26T10:18:37.758Z,98244.27
2018-01-26T10:21:06.499Z,98243.44
2018-01-26T10:23:34.799Z,98239.46
2018-01-26T10:26:03.167Z,98242.71
2018-01-26T10:28:31.480Z,98245.88
2018-01-26T10:30:59.791Z,98244.80
2018-01-26T10:33:28.016Z,98250.84
2018-01-26T10:35:56.337Z,98249.60
2018-01-26T10:38:24.640Z,98248.23
2018-01-26T10:40:52.991Z,98250.86
2018-01-26T10:43:21.300Z,98250.19
2018-01-26T10:45:49.600Z,98251.56
2018-01-26T10:48:18.004Z,98253.44
2018-01-26T10:50:47.391Z,98251.62
2018-01-26T10:53:15.905Z,98249.45
2018-01-26T10:55:44.727Z,98246.20
2018-01-26T10:58:13.867Z,98252.50
2018-01-26T11:00:44.599Z,98252.03
2018-01-26T11:03:12.904Z,98244.34
2018-01-26T11:05:41.215Z,98249.20
2018-01-26T11:08:09.568Z,98250.25
2018-01-26T11:10:37.863Z,98248.10
2018-01-26T11:13:06.199Z,98246.36
2018-01-26T11:15:34.724Z,98248.33
2018-01-26T11:18:03.035Z,98247.95
2018-01-26T11:20:31.335Z,98250.38
2018-01-26T11:23:00.466Z,98248.67
2018-01-26T11:25:28.773Z,98247.77
2018-01-26T11:27:57.079Z,98247.50
2018-01-26T11:30:25.663Z,98250.29
2018-01-26T11:32:53.954Z,98251.27
2018-01-26T11:35:22.263Z,98247.80
2018-01-26T11:37:50.616Z,98260.01
2018-01-26T11:40:19.500Z,98261.77
2018-01-26T11:42:47.807Z,98262.80
2018-01-26T11:45:16.439Z,98259.71
2018-01-26T11:47:44.738Z,98261.52
2018-01-26T11:50:13.041Z,98259.58
2018-01-26T11:52:41.451Z,98259.77
2018-01-26T11:55:09.752Z,98255.91
2018-01-26T11:57:38.051Z,98259.09
2018-01-26T12:00:06.411Z,98256.64
2018-01-26T12:02:34.736Z,98261.77
2018-01-26T12:05:03.043Z,98256.45
2018-01-26T12:07:31.404Z,98270.34
2018-01-26T12:09:59.754Z,98272.78
2018-01-26T12:12:28.060Z,98261.56
2018-01-26T12:14:56.411Z,98269.87
2018-01-26T12:17:24.708Z,98274.91
2018-01-26T12:19:53.009Z,98275.72
2018-01-26T12:22:21.359Z,98277.80
2018-01-26T12:24:50.040Z,98281.94
2018-01-26T12:27:18.660Z,98281.23
2018-01-26T12:29:47.315Z,98284.44
2018-01-26T12:32:15.937Z,98283.80
2018-01-26T12:34:45.559Z,98288.94
2018-01-26T12:37:13.947Z,98289.65
2018-01-26T12:39:42.303Z,98295.20
2018-01-26T12:42:10.695Z,98294.95
2018-01-26T12:44:39.091Z,98298.63
2018-01-26T12:47:08.156Z,98301.87
2018-01-26T12:49:36.516Z,98297.62
2018-01-26T12:52:05.254Z,98294.23
2018-01-26T12:54:33.603Z,98286.95
2018-01-26T12:57:01.954Z,98289.08
2018-01-26T12:59:30.597Z,98291.87
2018-01-26T13:01:59.719Z,98290.02
2018-01-26T13:04:28.072Z,98293.61
2018-01-26T13:06:56.455Z,98291.98
2018-01-26T13:09:25.567Z,98291.98
2018-01-26T13:11:54.006Z,98290.97
2018-01-26T13:14:23.278Z,98289.18
2018-01-26T13:16:51.636Z,98287.66
2018-01-26T13:19:20.011Z,98289.41
2018-01-26T13:21:48.518Z,98290.80
2018-01-26T13:24:17.358Z,98289.61
2018-01-26T13:26:49.325Z,98287.55
2018-01-26T13:29:18.439Z,98289.24
2018-01-26T13:31:46.791Z,98281.73
2018-01-26T13:34:15.904Z,98289.11
2018-01-26T13:36:44.319Z,98293.14
2018-01-26T13:39:12.675Z,98306.12
2018-01-26T13:41:42.227Z,98305.40
2018-01-26T13:44:10.545Z,98315.25
2018-01-26T13:46:38.860Z,98319.55
2018-01-26T13:49:07.539Z,98321.55
2018-01-26T13:51:35.840Z,98324.06
2018-01-26T13:54:04.135Z,98325.53
2018-01-26T13:56:33.475Z,98336.28
2018-01-26T13:59:01.796Z,98339.45
2018-01-26T14:01:30.107Z,98344.88
2018-01-26T14:03:58.887Z,98345.95
2018-01-26T14:06:27.946Z,98345.95
2018-01-26T14:08:56.463Z,98360.02
2018-01-26T14:11:24.816Z,98356.60
2018-01-26T14:13:53.245Z,98364.22
2018-01-26T14:16:22.023Z,98366.77
2018-01-26T14:18:50.375Z,98374.09
2018-01-26T14:21:18.760Z,98373.86
2018-01-26T14:23:47.067Z,98374.48
2018-01-26T14:26:15.411Z,98378.93
2018-01-26T14:28:43.708Z,98375.75
2018-01-26T14:31:12.775Z,98377.34
2018-01-26T14:33:41.224Z,98378.49
2018-01-26T14:36:09.519Z,98377.84
2018-01-26T14:38:37.820Z,98370.84
2018-01-26T14:41:06.583Z,98377.11
2018-01-26T14:43:34.885Z,98375.44
2018-01-26T14:46:03.186Z,98368.45
2018-01-26T14:48:31.532Z,98369.98
2018-01-26T14:51:00.187Z,98377.22
2018-01-26T14:53:28.522Z,98373.81
2018-01-26T14:55:57.084Z,98379.92
2018-01-26T14:58:25.388Z,98383.95
2018-01-26T15:00:53.690Z,98389.99
2018-01-26T15:03:22.036Z,98396.19
2018-01-26T15:05:51.099Z,98398.39
2018-01-26T15:08:20.155Z,98404.56
2018-01-26T15:10:49.227Z,98421.05
2018-01-26T15:13:17.532Z,98420.04
2018-01-26T15:15:45.840Z,98414.49
2018-01-26T15:18:14.286Z,98418.13
2018-01-26T15:20:42.626Z,98417.41
2018-01-26T15:23:11.727Z,98422.50
2018-01-26T15:25:40.847Z,98427.27
2018-01-26T15:28:09.907Z,98428.69
2018-01-26T15:30:38.980Z,98442.08
2018-01-26T15:33:07.775Z,98444.05
2018-01-26T15:35:36.099Z,98439.06
2018-01-26T15:38:04.395Z,98437.06
2018-01-26T15:40:32.777Z,98441.26
2018-01-26T15:43:01.081Z,98441.51
2018-01-26T15:45:29.884Z,98445.40
2018-01-26T15:47:58.984Z,98449.66
2018-01-26T15:50:27.267Z,98452.91
2018-01-26T15:52:56.340Z,98453.37
2018-01-26T15:55:25.411Z,98459.48
2018-01-26T15:57:53.771Z,98467.47
2018-01-26T16:00:22.382Z,98469.05
2018-01-26T16:02:51.307Z,98467.70
2018-01-26T16:05:19.662Z,98479.53
2018-01-26T16:07:48.083Z,98484.50
2018-01-26T16:10:17.232Z,98483.71
2018-01-26T16:12:45.588Z,98494.08
2018-01-26T16:15:13.947Z,98493.83
2018-01-26T16:17:42.454Z,98496.38
2018-01-26T16:20:10.843Z,98498.19
2018-01-26T16:22:39.883Z,98498.58
2018-01-26T16:25:08.259Z,98508.02
2018-01-26T16:27:36.620Z,98501.42
2018-01-26T16:30:04.979Z,98501.59
2018-01-26T16:32:33.400Z,98503.09
2018-01-26T16:35:01.750Z,98509.88
2018-01-26T16:37:30.499Z,98510.92
2018-01-26T16:39:58.898Z,98514.78
2018-01-26T16:42:28.168Z,98520.07
2018-01-26T16:44:56.734Z,98519.51
2018-01-26T16:47:25.094Z,98518.81
2018-01-26T16:49:53.470Z,98521.09
2018-01-26T16:52:21.831Z,98530.34
2018-01-26T16:54:50.187Z,98536.59
2018-01-26T16:57:18.967Z,98541.62
2018-01-26T16:59:47.812Z,98546.16
2018-01-26T17:02:16.431Z,98543.45
2018-01-26T17:04:46.198Z,98551.36
2018-01-26T17:07:15.298Z,98561.71
2018-01-26T17:09:43.604Z,98559.66
2018-01-26T17:12:12.836Z,98563.81
2018-01-26T17:14:41.199Z,98572.97
2018-01-26T17:17:09.511Z,98577.47
2018-01-26T17:19:38.451Z,98581.09
2018-01-26T17:22:06.767Z,98580.79
2018-01-26T17:24:35.074Z,98575.86
2018-01-26T17:27:03.866Z,98577.34
2018-01-26T17:29:33.497Z,98578.43
2018-01-26T17:32:02.792Z,98585.34
2018-01-26T17:34:31.632Z,98588.91
2018-01-26T17:36:59.976Z,98585.50
2018-01-26T17:39:28.284Z,98584.81
2018-01-26T17:41:57.103Z,98593.98
2018-01-26T17:44:25.497Z,98590.87
2018-01-26T17:46:53.787Z,98598.13
2018-01-26T17:49:22.107Z,98604.28
2018-01-26T17:51:50.452Z,98606.37
2018-01-26T17:54:18.806Z,98612.02
2018-01-26T17:56:47.897Z,98614.23
2018-01-26T17:59:17.423Z,98614.98
2018-01-26T18:01:45.732Z,98618.33
2018-01-26T18:04:14.046Z,98616.98
2018-01-26T18:06:42.424Z,98624.20
2018-01-26T18:09:10.740Z,98629.83
2018-01-26T18:11:39.090Z,98640.44
2018-01-26T18:14:07.435Z,98636.55
2018-01-26T18:16:35.748Z,98636.92
2018-01-26T18:19:04.091Z,98638.46
2018-01-26T18:21:32.487Z,98638.89
2018-01-26T18:24:00.803Z,98648.94
2018-01-26T18:26:30.119Z,98652.17
2018-01-26T18:28:58.606Z,98667.92
2018-01-26T18:31:26.722Z,98677.31
2018-01-26T18:33:55.447Z,98686.57
2018-01-26T18:36:24.028Z,98692.02
2018-01-26T18:38:52.385Z,98689.66
2018-01-26T18:41:20.739Z,98689.09
2018-01-26T18:43:49.518Z,98688.30
2018-01-26T18:46:17.881Z,98693.59
2018-01-26T18:48:46.242Z,98695.20
2018-01-26T18:51:14.642Z,98703.31
2018-01-26T18:53:42.994Z,98697.69
2018-01-26T18:56:11.346Z,98700.04
2018-01-26T18:58:40.211Z,98704.41
2018-01-26T19:01:08.688Z,98703.05
2018-01-26T19:03:37.160Z,98712.55
2018-01-26T19:06:06.601Z,98710.59
2018-01-26T19:08:35.088Z,98712.19
2018-01-26T19:11:03.463Z,98721.44
2018-01-26T19:13:32.580Z,98719.91
2018-01-26T19:16:00.939Z,98721.54
2018-01-26T19:18:29.300Z,98726.34
2018-01-26T19:20:57.639Z,98723.42
2018-01-26T19:23:25.994Z,98726.56
2018-01-26T19:25:54.415Z,98720.11
2018-01-26T19:28:22.722Z,98725.56
2018-01-26T19:30:51.078Z,98729.49
2018-01-26T19:33:19.495Z,98728.59
2018-01-26T19:35:47.852Z,98731.05
2018-01-26T19:38:16.152Z,98737.01
2018-01-26T19:40:45.263Z,98744.31
2018-01-26T19:43:14.408Z,98753.84
2018-01-26T19:45:42.835Z,98757.64
2018-01-26T19:48:11.662Z,98764.37
2018-01-26T19:50:40.348Z,98766.79
2018-01-26T19:53:10.519Z,98764.95
2018-01-26T19:55:38.915Z,98767.81
2018-01-26T19:58:07.688Z,98769.21
2018-01-26T20:00:36.141Z,98767.81
2018-01-26T20:03:31.156Z,98770.00
2018-01-26T20:06:04.879Z,98773.80
2018-01-26T20:08:39.377Z,98774.95
2018-01-26T20:11:07.690Z,98777.47
2018-01-26T20:13:36.094Z,98786.52
2018-01-26T20:16:05.023Z,98787.20
2018-01-26T20:18:33.327Z,98788.13
2018-01-26T20:21:01.790Z,98791.39
2018-01-26T20:23:30.306Z,98790.09
2018-01-26T20:25:58.662Z,98800.52
2018-01-26T20:28:27.794Z,98802.34
2018-01-26T20:30:56.458Z,98807.14
2018-01-26T20:33:25.530Z,98804.97
2018-01-26T20:35:54.807Z,98803.63
2018-01-26T20:38:23.192Z,98804.98
2018-01-26T20:40:51.571Z,98803.83
2018-01-26T20:43:19.931Z,98812.08
2018-01-26T20:45:48.284Z,98815.88
2018-01-26T20:48:17.011Z,98817.06
2018-01-26T20:50:45.623Z,98824.80
2018-01-26T20:53:14.178Z,98827.54
2018-01-26T20:55:42.550Z,98825.02
2018-01-26T20:58:10.911Z,98819.27
2018-01-26T21:00:39.291Z,98824.14
2018-01-26T21:03:07.642Z,98823.75
2018-01-26T21:05:36.027Z,98819.97
2018-01-26T21:08:04.375Z,98822.38
2018-01-26T21:10:32.690Z,98829.29
2018-01-26T21:13:01.051Z,98827.08
2018-01-26T21:15:29.943Z,98836.59
2018-01-26T21:17:58.598Z,98835.14
2018-01-26T21:20:26.959Z,98837.94
2018-01-26T21:22:55.928Z,98844.12
2018-01-26T21:25:24.260Z,98836.09
2018-01-26T21:27:53.568Z,98836.81
2018-01-26T21:30:23.398Z,98843.13
2018-01-26T21:32:56.428Z,98852.73
2018-01-26T21:35:25.491Z,98860.59
2018-01-26T21:37:53.850Z,98863.52
2018-01-26T21:40:22.351Z,98865.53
2018-01-26T21:42:50.655Z,98871.63
2018-01-26T21:45:19.050Z,98875.30
2018-01-26T21:47:47.705Z,98868.97
2018-01-26T21:50:16.085Z,98878.89
2018-01-26T21:52:45.819Z,98880.20
2018-01-26T21:55:15.038Z,98878.48
2018-01-26T21:57:43.442Z,98878.14
2018-01-26T22:00:11.783Z,98885.33
2018-01-26T22:02:40.163Z,98894.11
2018-01-26T22:05:14.059Z,98901.17
2018-01-26T22:07:42.441Z,98910.15
2018-01-26T22:10:10.784Z,98909.23
2018-01-26T22:12:39.485Z,98912.75
2018-01-26T22:15:07.846Z,98919.43
2018-01-26T22:17:37.242Z,98919.43
2018-01-26T22:20:05.865Z,98916.16
2018-01-26T22:22:34.369Z,98920.42
2018-01-26T22:25:03.071Z,98930.45
2018-01-26T22:27:31.588Z,98931.64
2018-01-26T22:30:00.529Z,98934.32
2018-01-26T22:32:28.831Z,98941.44
2018-01-26T22:34:57.192Z,98944.64
2018-01-26T22:37:25.551Z,98942.63
2018-01-26T22:39:54.488Z,98944.29
2018-01-26T22:42:22.926Z,98945.91
2018-01-26T22:44:51.803Z,98946.14
2018-01-26T22:47:20.198Z,98942.42
2018-01-26T22:49:48.538Z,98948.63
2018-01-26T22:52:17.482Z,98949.94
2018-01-26T22:54:45.961Z,98954.00
2018-01-26T22:57:14.263Z,98969.66
2018-01-26T22:59:43.369Z,98971.95
2018-01-26T23:02:11.811Z,98976.09
2018-01-26T23:04:40.183Z,98979.34
2018-01-26T23:07:08.495Z,98981.88
2018-01-26T23:09:36.894Z,98984.01
2018-01-26T23:12:05.262Z,98990.09
2018-01-26T23:14:33.641Z,98986.30
2018-01-26T23:17:02.703Z,98993.06
2018-01-26T23:19:32.480Z,98998.86
2018-01-26T23:22:01.396Z,99003.17
2018-01-26T23:24:31.578Z,99007.44
2018-01-26T23:26:59.892Z,99007.29
2018-01-26T23:29:28.495Z,99015.90
2018-01-26T23:31:56.890Z,99011.83
2018-01-26T23:34:26.016Z,99010.32
2018-01-26T23:36:55.083Z,99010.77
2018-01-26T23:39:23.415Z,99016.89
2018-01-26T23:41:51.844Z,99019.50
2018-01-26T23:44:21.257Z,99027.95
2018-01-26T23:46:49.614Z,99023.88
2018-01-26T23:49:17.973Z,99024.95
2018-01-26T23:51:46.316Z,99016.25
2018-01-26T23:54:14.662Z,99007.84
2018-01-26T23:56:43.006Z,99004.84
2018-01-26T23:59:11.511Z,99005.85
